Ana Sayfa
METAR-TAF:

METAR-TAF

Havaalanları :

McMinnville, Oregon, Amerika Birleşik Devletleri

Enlem: 45-11-46N, Boylam: 123-07-56W, yükseklik: 48 m

Güncel hava durumu gözlemi

Rapor saat 23:21 UTC de 37 dakika önce yapıldı.
Rüzgar güney/güneydoğudan 5 kt
Sıcaklık 8°C
Nem 87%
Basınç 1022 hPa
Görüş mesafesi: 16.1 km
1600 ft yükseklikte parçalı çok bulutlu

METAR: KMMV 092321Z AUTO 16005KT 10SM BKN016 08/06 A3018 RMK AO2 T00780056

Saat: 15:58 (23:58 UTC)


TAF: eksik

4.000'den fazla havaalanı için hava durumu gözlemleri ve tahminleri (METAR ve TAF raporları).

Kullanılabilir istasyonlar harita üzerinde sarı ve kırmızı noktalarla gösterilir.

İstasyonun adını görmek için fareyi noktanın üzerinde gezdirin.

Sonrasında hava gözlem ve tahminlerini görmek için tıklayın.

Haritayı değiştirmek için: yaklaştırmak için siyah artı işaretli yeşil düğmeye ve uzaklaştırmak için de eksi işaretli düğmeye hızla tıklayın; bitişik haritalar için yeşil okları kullanın.


METAR-TAF: